createdAt,value
2023-02-18T00:01:57.585Z,93.05
2023-02-18T00:04:26.171Z,95.00
2023-02-18T00:06:54.467Z,95.47
2023-02-18T00:09:23.203Z,95.85
2023-02-18T00:11:51.883Z,97.68
2023-02-18T00:14:20.662Z,89.88
2023-02-18T00:16:49.158Z,87.78
2023-02-18T00:19:19.492Z,88.93
2023-02-18T00:21:48.162Z,85.00
2023-02-18T00:24:17.086Z,88.18
2023-02-18T00:26:46.375Z,85.93
2023-02-18T00:29:15.092Z,84.50
2023-02-18T00:31:43.754Z,81.55
2023-02-18T00:34:13.434Z,85.05
2023-02-18T00:36:41.939Z,78.43
2023-02-18T00:39:11.486Z,82.68
2023-02-18T00:42:06.245Z,81.75
2023-02-18T00:44:35.001Z,75.47
2023-02-18T00:47:03.515Z,74.93
2023-02-18T00:49:32.816Z,76.28
2023-02-18T00:52:01.172Z,74.47
2023-02-18T00:54:29.968Z,76.50
2023-02-18T00:56:58.434Z,78.55
2023-02-18T00:59:28.042Z,74.43
2023-02-18T01:01:56.582Z,69.63
2023-02-18T01:04:25.559Z,76.15
2023-02-18T01:06:54.066Z,73.05
2023-02-18T01:09:25.758Z,79.15
2023-02-18T01:11:54.137Z,71.00
2023-02-18T01:14:22.885Z,76.43
2023-02-18T01:16:51.768Z,72.40
2023-02-18T01:19:20.641Z,69.03
2023-02-18T01:21:49.102Z,70.07
2023-02-18T01:24:17.858Z,65.18
2023-02-18T01:26:46.348Z,68.15
2023-02-18T01:29:17.308Z,63.67
2023-02-18T01:31:45.982Z,66.82
2023-02-18T01:34:15.560Z,71.50
2023-02-18T01:36:44.107Z,64.85
2023-02-18T01:39:12.935Z,65.05
2023-02-18T01:41:41.337Z,63.28
2023-02-18T01:44:26.114Z,66.10
2023-02-18T01:46:54.640Z,65.00
2023-02-18T01:49:33.510Z,67.30
2023-02-18T01:52:12.572Z,66.35
2023-02-18T01:54:55.723Z,68.70
2023-02-18T01:57:33.456Z,69.03
2023-02-18T02:00:12.409Z,62.72
2023-02-18T02:02:46.444Z,64.95
2023-02-18T02:05:15.840Z,62.13
2023-02-18T02:07:45.074Z,66.40
2023-02-18T02:10:14.801Z,63.90
2023-02-18T02:12:54.861Z,61.42
2023-02-18T02:15:44.503Z,62.53
2023-02-18T02:18:21.702Z,63.58
2023-02-18T02:21:27.300Z,63.53
2023-02-18T02:24:10.661Z,67.40
2023-02-18T02:26:49.589Z,65.63
2023-02-18T02:30:01.543Z,66.50
2023-02-18T02:33:00.621Z,63.08
2023-02-18T02:35:37.560Z,62.60
2023-02-18T02:38:20.254Z,60.67
2023-02-18T02:41:20.066Z,61.05
2023-02-18T02:44:20.432Z,63.03
2023-02-18T02:46:54.164Z,63.40
2023-02-18T02:49:58.500Z,59.15
2023-02-18T02:52:33.923Z,65.75
2023-02-18T02:55:09.312Z,62.00
2023-02-18T02:57:46.854Z,60.35
2023-02-18T03:00:40.148Z,59.20
2023-02-18T03:03:57.385Z,62.05
2023-02-18T03:06:28.971Z,57.63
2023-02-18T03:09:05.567Z,61.78
2023-02-18T03:12:11.655Z,56.72
2023-02-18T03:15:04.226Z,56.95
2023-02-18T03:17:57.556Z,60.38
2023-02-18T03:20:41.952Z,62.40
2023-02-18T03:23:14.257Z,57.80
2023-02-18T03:25:42.697Z,60.80
2023-02-18T03:28:21.911Z,56.53
2023-02-18T03:30:53.630Z,58.92
2023-02-18T03:33:38.250Z,53.08
2023-02-18T03:36:07.755Z,56.47
2023-02-18T03:38:47.691Z,55.00
2023-02-18T03:41:16.103Z,56.42
2023-02-18T03:43:56.612Z,58.70
2023-02-18T03:46:25.117Z,56.60
2023-02-18T03:48:53.963Z,60.90
2023-02-18T03:51:23.059Z,56.03
2023-02-18T03:53:51.753Z,55.08
2023-02-18T03:56:20.760Z,61.33
2023-02-18T03:58:49.577Z,59.13
2023-02-18T04:01:18.025Z,61.08
2023-02-18T04:03:46.744Z,60.28
2023-02-18T04:06:15.122Z,63.80
2023-02-18T04:08:44.123Z,60.60
2023-02-18T04:11:12.583Z,66.78
2023-02-18T04:13:41.301Z,73.32
2023-02-18T04:16:09.965Z,71.10
2023-02-18T04:18:38.894Z,74.00
2023-02-18T04:21:07.378Z,73.65
2023-02-18T04:23:36.241Z,74.38
2023-02-18T04:26:04.940Z,75.55
2023-02-18T04:28:33.784Z,85.47
2023-02-18T04:31:02.315Z,84.25
2023-02-18T04:33:31.169Z,82.78
2023-02-18T04:35:59.610Z,83.70
2023-02-18T04:38:28.872Z,85.75
2023-02-18T04:40:57.395Z,82.95
2023-02-18T04:43:26.741Z,87.90
2023-02-18T04:45:55.481Z,84.03
2023-02-18T04:48:24.503Z,84.85
2023-02-18T04:50:53.173Z,89.43
2023-02-18T04:53:22.083Z,84.20
2023-02-18T04:55:51.941Z,88.90
2023-02-18T04:58:21.356Z,81.93
2023-02-18T05:00:50.025Z,84.20
2023-02-18T05:03:18.598Z,84.10
2023-02-18T05:05:46.974Z,84.32
2023-02-18T05:08:16.562Z,83.68
2023-02-18T05:10:45.006Z,86.30
2023-02-18T05:13:13.889Z,83.05
2023-02-18T05:15:42.396Z,83.90
2023-02-18T05:18:11.118Z,78.45
2023-02-18T05:20:39.525Z,82.88
2023-02-18T05:23:08.325Z,79.70
2023-02-18T05:25:36.800Z,74.93
2023-02-18T05:28:05.581Z,83.43
2023-02-18T05:30:33.988Z,81.28
2023-02-18T05:33:02.769Z,85.47
2023-02-18T05:35:31.148Z,79.38
2023-02-18T05:37:59.996Z,76.28
2023-02-18T05:40:28.476Z,79.40
2023-02-18T05:42:57.208Z,76.65
2023-02-18T05:45:25.711Z,82.30
2023-02-18T05:47:54.433Z,78.47
2023-02-18T05:50:23.098Z,78.15
2023-02-18T05:52:52.020Z,73.25
2023-02-18T05:55:20.403Z,72.97
2023-02-18T05:57:49.164Z,75.63
2023-02-18T06:00:18.446Z,68.40
2023-02-18T06:02:47.222Z,71.20
2023-02-18T06:05:15.646Z,72.07
2023-02-18T06:07:44.351Z,67.28
2023-02-18T06:10:12.869Z,68.95
2023-02-18T06:12:41.587Z,66.32
2023-02-18T06:15:10.135Z,75.60
2023-02-18T06:17:38.760Z,67.82
2023-02-18T06:20:08.057Z,69.53
2023-02-18T06:22:36.739Z,65.68
2023-02-18T06:25:05.377Z,73.28
2023-02-18T06:27:34.166Z,70.32
2023-02-18T06:30:02.530Z,69.93
2023-02-18T06:32:31.285Z,71.40
2023-02-18T06:34:59.616Z,68.38
2023-02-18T06:37:28.293Z,72.72
2023-02-18T06:39:56.942Z,70.35
2023-02-18T06:42:25.693Z,72.82
2023-02-18T06:44:54.032Z,70.60
2023-02-18T06:47:23.101Z,67.75
2023-02-18T06:49:51.452Z,71.82
2023-02-18T06:52:20.212Z,71.25
2023-02-18T06:54:48.679Z,72.30
2023-02-18T06:57:17.390Z,69.95
2023-02-18T06:59:45.840Z,67.80
2023-02-18T07:02:14.672Z,67.65
2023-02-18T07:04:43.193Z,69.45
2023-02-18T07:07:11.992Z,65.03
2023-02-18T07:09:40.500Z,75.05
2023-02-18T07:12:09.263Z,64.30
2023-02-18T07:14:37.677Z,65.32
2023-02-18T07:17:06.484Z,66.90
2023-02-18T07:19:35.038Z,67.63
2023-02-18T07:22:03.777Z,69.78
2023-02-18T07:24:32.258Z,66.70
2023-02-18T07:27:01.117Z,71.60
2023-02-18T07:29:29.547Z,64.10
2023-02-18T07:31:58.231Z,66.93
2023-02-18T07:34:26.617Z,67.20
2023-02-18T07:36:55.458Z,73.22
2023-02-18T07:39:23.806Z,66.97
2023-02-18T07:41:52.590Z,72.15
2023-02-18T07:44:21.201Z,73.20
2023-02-18T07:46:50.167Z,70.05
2023-02-18T07:49:18.677Z,74.57
2023-02-18T07:51:51.002Z,74.65
2023-02-18T07:54:19.518Z,75.78
2023-02-18T07:56:48.300Z,78.20
2023-02-18T07:59:16.850Z,74.88
2023-02-18T08:01:45.645Z,79.65
2023-02-18T08:04:15.630Z,74.93
2023-02-18T08:06:46.877Z,80.20
2023-02-18T08:09:16.267Z,77.53
2023-02-18T08:11:45.248Z,83.03
2023-02-18T08:14:13.761Z,79.18
2023-02-18T08:16:42.617Z,83.55
2023-02-18T08:19:11.316Z,82.15
2023-02-18T08:21:40.164Z,80.80
2023-02-18T08:24:08.783Z,80.45
2023-02-18T08:26:37.768Z,78.22
2023-02-18T08:29:06.405Z,81.97
2023-02-18T08:31:36.623Z,78.63
2023-02-18T08:34:05.186Z,81.68
2023-02-18T08:36:33.974Z,80.88
2023-02-18T08:39:02.530Z,79.78
2023-02-18T08:41:31.324Z,80.15
2023-02-18T08:43:59.813Z,78.63
2023-02-18T08:46:35.261Z,81.80
2023-02-18T08:49:05.667Z,81.20
2023-02-18T08:51:34.649Z,77.95
2023-02-18T08:54:03.163Z,79.88
2023-02-18T08:56:32.812Z,82.20
2023-02-18T08:59:02.087Z,75.20
2023-02-18T09:01:30.569Z,76.25
2023-02-18T09:03:59.496Z,82.32
2023-02-18T09:06:28.064Z,81.68
2023-02-18T09:08:57.078Z,79.60
2023-02-18T09:11:25.376Z,85.50
2023-02-18T09:13:54.031Z,83.85
2023-02-18T09:16:25.946Z,85.43
2023-02-18T09:18:55.024Z,88.78
2023-02-18T09:21:23.559Z,85.85
2023-02-18T09:23:52.753Z,88.78
2023-02-18T09:26:23.189Z,85.72
2023-02-18T09:28:52.824Z,79.95
2023-02-18T09:31:25.380Z,82.82
2023-02-18T09:34:03.610Z,83.47
2023-02-18T09:36:32.258Z,81.95
2023-02-18T09:39:01.157Z,80.80
2023-02-18T09:41:44.162Z,88.32
2023-02-18T09:47:04.207Z,82.80
2023-02-18T09:49:37.150Z,83.05
2023-02-18T09:52:30.445Z,86.70
2023-02-18T09:57:41.052Z,91.40
2023-02-18T10:00:24.400Z,93.50
2023-02-18T10:03:07.058Z,90.45
2023-02-18T10:05:36.166Z,98.78
2023-02-18T10:08:19.858Z,119.53
2023-02-18T10:10:48.866Z,122.50
2023-02-18T10:13:23.919Z,119.60
2023-02-18T10:15:53.350Z,116.55
2023-02-18T10:18:27.519Z,113.45
2023-02-18T10:21:30.887Z,112.68
2023-02-18T10:24:27.073Z,122.83
2023-02-18T10:26:57.025Z,122.15
2023-02-18T10:29:25.813Z,142.63
2023-02-18T10:32:06.799Z,132.90
2023-02-18T10:34:49.871Z,120.13
2023-02-18T10:40:32.202Z,134.75
2023-02-18T10:43:19.961Z,125.20
2023-02-18T10:46:13.599Z,115.30
2023-02-18T10:49:01.531Z,116.65
2023-02-18T10:51:34.744Z,112.50
2023-02-18T10:54:03.760Z,109.13
2023-02-18T10:56:51.191Z,119.55
2023-02-18T10:59:36.154Z,120.82
2023-02-18T11:02:16.448Z,116.57
2023-02-18T11:04:46.487Z,119.10
2023-02-18T11:07:31.843Z,108.28
2023-02-18T11:10:18.939Z,116.18
2023-02-18T11:12:50.400Z,106.90
2023-02-18T11:15:23.740Z,105.30
2023-02-18T11:17:55.428Z,110.57
2023-02-18T11:20:25.886Z,104.68
2023-02-18T11:22:59.958Z,106.55
2023-02-18T11:25:34.079Z,102.18
2023-02-18T11:28:29.232Z,106.78
2023-02-18T11:31:00.636Z,106.78
2023-02-18T11:33:57.492Z,102.78
2023-02-18T11:36:36.410Z,107.60
2023-02-18T11:39:24.688Z,106.03
2023-02-18T11:42:03.757Z,107.80
2023-02-18T11:44:43.319Z,106.93
2023-02-18T11:47:15.021Z,109.38
2023-02-18T11:49:44.537Z,110.47
2023-02-18T11:52:34.973Z,111.88
2023-02-18T11:55:22.833Z,106.72
2023-02-18T11:58:05.841Z,114.57
2023-02-18T12:00:44.342Z,112.97
2023-02-18T12:03:58.928Z,111.72
2023-02-18T12:07:05.714Z,115.95
2023-02-18T12:09:45.588Z,110.93
2023-02-18T12:12:18.665Z,108.32
2023-02-18T12:14:47.474Z,112.22
2023-02-18T12:17:36.706Z,106.40
2023-02-18T12:20:20.526Z,116.00
2023-02-18T12:25:55.326Z,106.85
2023-02-18T12:28:42.109Z,111.00
2023-02-18T12:31:18.960Z,115.45
2023-02-18T12:33:47.366Z,118.63
2023-02-18T12:36:55.775Z,115.22
2023-02-18T12:40:17.618Z,114.30
2023-02-18T12:42:58.396Z,111.72
2023-02-18T12:45:44.647Z,118.53
2023-02-18T12:48:13.355Z,116.45
2023-02-18T12:50:44.865Z,113.93
2023-02-18T12:53:41.789Z,120.13
2023-02-18T12:56:40.506Z,116.68
2023-02-18T12:59:40.451Z,109.15
2023-02-18T13:02:55.031Z,121.13
2023-02-18T13:05:39.489Z,114.72
2023-02-18T13:08:40.127Z,121.90
2023-02-18T13:11:42.888Z,121.15
2023-02-18T13:14:19.323Z,110.25
2023-02-18T13:16:52.820Z,112.25
2023-02-18T13:19:21.679Z,118.85
2023-02-18T13:21:53.805Z,108.35
2023-02-18T13:24:35.155Z,110.15
2023-02-18T13:27:09.805Z,110.47
2023-02-18T13:30:18.878Z,104.22
2023-02-18T13:33:09.228Z,109.90
2023-02-18T13:36:06.606Z,107.05
2023-02-18T13:38:51.467Z,117.63
2023-02-18T13:41:20.499Z,103.95
2023-02-18T13:43:49.477Z,99.35
2023-02-18T13:46:22.969Z,106.03
2023-02-18T13:49:04.280Z,99.43
2023-02-18T13:51:46.581Z,105.20
2023-02-18T13:54:40.180Z,103.70
2023-02-18T13:57:22.272Z,98.38
2023-02-18T14:00:04.490Z,127.82
2023-02-18T14:02:35.813Z,101.00
2023-02-18T14:05:07.714Z,104.22
2023-02-18T14:07:36.172Z,103.78
2023-02-18T14:10:30.430Z,103.30
2023-02-18T14:12:59.033Z,98.75
2023-02-18T14:15:27.926Z,102.55
2023-02-18T14:18:25.151Z,98.43
2023-02-18T14:21:04.240Z,102.75
2023-02-18T14:23:39.706Z,97.28
2023-02-18T14:26:14.068Z,96.32
2023-02-18T14:28:45.723Z,99.50
2023-02-18T14:31:17.136Z,95.30
2023-02-18T14:34:31.070Z,96.35
2023-02-18T14:37:54.069Z,98.82
2023-02-18T14:40:45.211Z,92.20
2023-02-18T14:43:34.246Z,97.75
2023-02-18T14:46:43.053Z,97.88
2023-02-18T14:49:46.923Z,95.82
2023-02-18T14:53:10.901Z,88.45
2023-02-18T14:58:20.315Z,93.57
2023-02-18T15:00:49.356Z,104.90
2023-02-18T15:03:20.535Z,107.03
2023-02-18T15:05:53.529Z,92.13
2023-02-18T15:08:24.143Z,103.03
2023-02-18T15:10:57.401Z,95.32
2023-02-18T15:13:44.464Z,100.50
2023-02-18T15:16:34.038Z,98.18
2023-02-18T15:19:07.766Z,103.47
2023-02-18T15:21:40.713Z,101.70
2023-02-18T15:24:46.942Z,98.57
2023-02-18T15:27:28.591Z,102.88
2023-02-18T15:30:13.174Z,101.32
2023-02-18T15:32:54.952Z,101.05
2023-02-18T15:35:29.357Z,112.38
2023-02-18T15:38:00.220Z,93.78
2023-02-18T15:40:33.411Z,99.93
2023-02-18T15:43:04.222Z,95.53
2023-02-18T15:45:41.917Z,97.82
2023-02-18T15:48:33.157Z,98.72
2023-02-18T15:51:17.034Z,98.75
2023-02-18T15:53:49.642Z,95.35
2023-02-18T15:56:38.202Z,94.65
2023-02-18T15:59:29.008Z,91.80
2023-02-18T16:02:13.017Z,93.55
2023-02-18T16:04:42.717Z,98.10
2023-02-18T16:07:26.495Z,100.18
2023-02-18T16:10:21.790Z,98.35
2023-02-18T16:12:55.649Z,97.18
2023-02-18T16:15:30.444Z,98.22
2023-02-18T16:18:01.733Z,99.05
2023-02-18T16:20:33.661Z,95.93
2023-02-18T16:23:13.094Z,99.45
2023-02-18T16:25:43.482Z,89.13
2023-02-18T16:28:22.905Z,90.38
2023-02-18T16:30:51.849Z,91.40
2023-02-18T16:33:20.230Z,97.43
2023-02-18T16:35:50.734Z,85.70
2023-02-18T16:38:22.287Z,88.85
2023-02-18T16:40:51.322Z,86.05
2023-02-18T16:43:27.096Z,84.05
2023-02-18T16:46:05.676Z,87.88
2023-02-18T16:48:41.023Z,81.32
2023-02-18T16:51:23.791Z,81.35
2023-02-18T16:53:52.327Z,90.20
2023-02-18T16:56:28.713Z,90.78
2023-02-18T16:58:57.652Z,82.22
2023-02-18T17:01:38.537Z,84.63
2023-02-18T17:04:07.368Z,82.88
2023-02-18T17:06:36.315Z,87.55
2023-02-18T17:09:17.301Z,83.90
2023-02-18T17:11:46.671Z,82.75
2023-02-18T17:14:18.150Z,83.32
2023-02-18T17:16:48.107Z,81.43
2023-02-18T17:19:17.007Z,79.65
2023-02-18T17:21:48.296Z,86.93
2023-02-18T17:24:18.383Z,80.20
2023-02-18T17:26:47.095Z,86.55
2023-02-18T17:29:15.787Z,81.13
2023-02-18T17:31:47.308Z,83.22
2023-02-18T17:34:23.652Z,88.15
2023-02-18T17:36:52.336Z,88.40
2023-02-18T17:39:20.977Z,84.00
2023-02-18T17:41:49.754Z,85.43
2023-02-18T17:44:20.702Z,81.15
2023-02-18T17:46:52.636Z,85.20
2023-02-18T17:49:22.569Z,85.63
2023-02-18T17:51:52.997Z,87.68
2023-02-18T17:54:25.747Z,84.65
2023-02-18T17:56:56.232Z,91.20
2023-02-18T17:59:24.689Z,87.55
2023-02-18T18:01:53.503Z,89.38
2023-02-18T18:04:22.182Z,87.90
2023-02-18T18:06:51.385Z,88.35
2023-02-18T18:09:19.790Z,89.07
2023-02-18T18:11:48.812Z,92.10
2023-02-18T18:14:17.246Z,85.55
2023-02-18T18:16:46.377Z,86.38
2023-02-18T18:19:14.965Z,96.00
2023-02-18T18:21:45.658Z,94.28
2023-02-18T18:24:14.150Z,87.55
2023-02-18T18:26:43.109Z,92.97
2023-02-18T18:29:11.606Z,92.63
2023-02-18T18:31:40.617Z,106.10
2023-02-18T18:34:09.972Z,97.10
2023-02-18T18:36:38.999Z,93.97
2023-02-18T18:39:07.500Z,100.65
2023-02-18T18:41:36.378Z,89.65
2023-02-18T18:44:05.182Z,97.10
2023-02-18T18:46:34.024Z,103.75
2023-02-18T18:49:02.760Z,104.13
2023-02-18T18:51:31.929Z,105.85
2023-02-18T18:54:00.363Z,103.50
2023-02-18T18:56:29.120Z,100.88
2023-02-18T18:58:57.682Z,99.32
2023-02-18T19:01:27.845Z,103.60
2023-02-18T19:03:56.463Z,108.28
2023-02-18T19:06:25.224Z,101.88
2023-02-18T19:08:53.630Z,105.70
2023-02-18T19:11:22.364Z,99.50
2023-02-18T19:13:50.760Z,104.78
2023-02-18T19:16:22.460Z,99.35
2023-02-18T19:18:50.962Z,105.82
2023-02-18T19:21:19.682Z,109.97
2023-02-18T19:23:48.141Z,104.15
2023-02-18T19:26:17.300Z,108.47
2023-02-18T19:28:46.375Z,101.80
2023-02-18T19:31:15.616Z,105.32
2023-02-18T19:33:47.056Z,102.05
2023-02-18T19:36:16.983Z,106.68
2023-02-18T19:38:46.187Z,100.95
2023-02-18T19:41:17.216Z,97.22
2023-02-18T19:43:46.775Z,101.85
2023-02-18T19:46:17.636Z,104.90
2023-02-18T19:48:50.789Z,108.50
2023-02-18T19:51:20.884Z,103.78
2023-02-18T19:53:49.321Z,111.82
2023-02-18T19:56:18.412Z,105.30
2023-02-18T19:58:47.030Z,100.47
2023-02-18T20:01:17.146Z,107.05
2023-02-18T20:03:45.633Z,100.93
2023-02-18T20:06:18.834Z,107.57
2023-02-18T20:08:47.460Z,109.43
2023-02-18T20:11:16.480Z,103.47
2023-02-18T20:13:44.922Z,104.40
2023-02-18T20:16:13.775Z,107.60
2023-02-18T20:18:42.301Z,99.65
2023-02-18T20:21:12.350Z,100.95
2023-02-18T20:23:41.548Z,98.70
2023-02-18T20:26:11.282Z,106.10
2023-02-18T20:28:39.659Z,106.47
2023-02-18T20:31:11.610Z,101.78
2023-02-18T20:33:42.380Z,105.57
2023-02-18T20:36:11.706Z,106.18
2023-02-18T20:38:40.309Z,106.13
2023-02-18T20:41:14.751Z,103.93
2023-02-18T20:59:36.889Z,110.13
2023-02-18T21:02:05.809Z,100.72
2023-02-18T21:04:34.422Z,100.78
2023-02-18T21:07:03.382Z,107.68
2023-02-18T21:09:31.923Z,103.82
2023-02-18T21:12:00.930Z,101.97
2023-02-18T21:14:29.377Z,101.50
2023-02-18T21:16:58.208Z,100.05
2023-02-18T21:19:26.987Z,101.72
2023-02-18T21:21:57.357Z,96.80
2023-02-18T21:24:25.934Z,102.43
2023-02-18T21:26:54.802Z,99.65
2023-02-18T21:29:23.383Z,103.15
2023-02-18T21:31:52.525Z,104.13
2023-02-18T21:34:23.199Z,101.07
2023-02-18T21:36:52.041Z,101.03
2023-02-18T21:39:20.482Z,104.13
2023-02-18T21:41:49.387Z,103.20
2023-02-18T21:44:17.914Z,103.25
2023-02-18T21:46:46.780Z,102.65
2023-02-18T21:49:15.912Z,106.43
2023-02-18T21:51:57.671Z,112.03
2023-02-18T21:54:36.237Z,101.68
2023-02-18T21:57:05.905Z,103.82
2023-02-18T21:59:34.994Z,105.43
2023-02-18T22:02:04.251Z,107.60
2023-02-18T22:04:34.115Z,107.50
2023-02-18T22:07:03.845Z,105.13
2023-02-18T22:09:32.360Z,100.50
2023-02-18T22:12:01.217Z,104.72
2023-02-18T22:14:29.979Z,102.22
2023-02-18T22:16:59.129Z,105.40
2023-02-18T22:19:28.901Z,103.28
2023-02-18T22:21:57.926Z,98.45
2023-02-18T22:24:27.676Z,109.78
2023-02-18T22:27:02.382Z,105.43
2023-02-18T22:29:31.650Z,105.10
2023-02-18T22:32:00.763Z,97.32
2023-02-18T22:34:29.486Z,99.22
2023-02-18T22:36:58.384Z,100.47
2023-02-18T22:39:26.972Z,104.25
2023-02-18T22:41:55.807Z,103.80
2023-02-18T22:44:26.402Z,99.78
2023-02-18T22:46:56.531Z,101.90
2023-02-18T22:49:25.695Z,105.28
2023-02-18T22:51:54.848Z,106.03
2023-02-18T22:54:23.372Z,102.85
2023-02-18T22:56:53.329Z,102.82
2023-02-18T22:59:21.885Z,99.10
2023-02-18T23:01:53.271Z,99.13
2023-02-18T23:04:22.106Z,104.32
2023-02-18T23:06:51.009Z,95.30
2023-02-18T23:09:22.763Z,94.93
2023-02-18T23:11:57.656Z,99.85
2023-02-18T23:14:28.391Z,101.43
2023-02-18T23:17:14.064Z,96.65
2023-02-18T23:19:50.970Z,98.82
2023-02-18T23:22:35.800Z,105.85
2023-02-18T23:25:04.311Z,93.07
2023-02-18T23:27:33.002Z,91.82
2023-02-18T23:30:01.448Z,92.10
2023-02-18T23:32:32.445Z,96.38
2023-02-18T23:35:00.922Z,99.90
2023-02-18T23:37:49.980Z,97.95
2023-02-18T23:40:18.463Z,96.43
2023-02-18T23:42:47.261Z,93.95
2023-02-18T23:45:15.845Z,95.47
2023-02-18T23:47:44.634Z,97.75
2023-02-18T23:50:19.390Z,100.95
2023-02-18T23:52:50.308Z,103.47
2023-02-18T23:55:18.930Z,94.47
2023-02-18T23:57:47.854Z,92.82
